createdAt,value
2023-01-04T00:02:04.137Z,98991.59
2023-01-04T00:04:32.414Z,98984.72
2023-01-04T00:07:00.673Z,98988.34
2023-01-04T00:09:28.923Z,98981.31
2023-01-04T00:11:57.145Z,98975.13
2023-01-04T00:14:26.821Z,98960.31
2023-01-04T00:16:55.037Z,98969.13
2023-01-04T00:19:23.335Z,98963.03
2023-01-04T00:21:51.593Z,98956.09
2023-01-04T00:24:19.943Z,98951.66
2023-01-04T00:26:48.221Z,98942.00
2023-01-04T00:29:16.533Z,98947.34
2023-01-04T00:31:46.160Z,98945.56
2023-01-04T00:34:17.408Z,98945.56
2023-01-04T00:36:46.418Z,98943.84
2023-01-04T00:39:17.263Z,98941.31
2023-01-04T00:42:02.929Z,98944.88
2023-01-04T00:44:32.720Z,98937.94
2023-01-04T00:47:04.436Z,98936.22
2023-01-04T00:49:33.386Z,98941.63
2023-01-04T00:52:02.174Z,98944.16
2023-01-04T00:54:30.489Z,98937.16
2023-01-04T00:57:01.204Z,98945.03
2023-01-04T00:59:29.975Z,98936.28
2023-01-04T01:01:58.608Z,98936.28
2023-01-04T01:04:28.436Z,98938.16
2023-01-04T01:06:56.731Z,98944.31
2023-01-04T01:09:25.104Z,98951.38
2023-01-04T01:11:54.742Z,98952.19
2023-01-04T01:14:26.593Z,98965.25
2023-01-04T01:16:57.633Z,98959.09
2023-01-04T01:19:29.699Z,98951.22
2023-01-04T01:21:59.805Z,98939.06
2023-01-04T01:24:28.976Z,98930.38
2023-01-04T01:26:57.787Z,98924.41
2023-01-04T01:29:26.337Z,98929.66
2023-01-04T01:31:54.955Z,98926.25
2023-01-04T01:34:23.499Z,98935.00
2023-01-04T01:36:53.103Z,98952.44
2023-01-04T01:39:21.391Z,98948.13
2023-01-04T01:41:49.849Z,98945.50
2023-01-04T01:45:00.051Z,98951.59
2023-01-04T01:47:35.329Z,98951.69
2023-01-04T01:50:05.452Z,98948.19
2023-01-04T01:52:39.976Z,98942.09
2023-01-04T01:55:13.088Z,98943.81
2023-01-04T01:57:41.837Z,98941.94
2023-01-04T02:00:14.531Z,98924.56
2023-01-04T02:02:51.370Z,98922.66
2023-01-04T02:05:21.551Z,98907.72
2023-01-04T02:07:51.724Z,98910.28
2023-01-04T02:10:20.264Z,98907.56
2023-01-04T02:12:48.744Z,98910.13
2023-01-04T02:15:17.130Z,98909.13
2023-01-04T02:17:55.897Z,98907.34
2023-01-04T02:20:40.100Z,98889.09
2023-01-04T02:23:59.652Z,98893.38
2023-01-04T02:27:00.903Z,98898.69
2023-01-04T02:30:27.810Z,98888.13
2023-01-04T02:33:13.873Z,98884.63
2023-01-04T02:35:50.732Z,98876.69
2023-01-04T02:38:27.004Z,98861.72
2023-01-04T02:41:06.632Z,98845.19
2023-01-04T02:43:59.009Z,98849.25
2023-01-04T02:46:32.244Z,98862.28
2023-01-04T02:49:21.101Z,98874.44
2023-01-04T02:51:49.704Z,98877.88
2023-01-04T02:54:22.778Z,98874.34
2023-01-04T02:57:06.318Z,98870.88
2023-01-04T03:00:00.879Z,98868.25
2023-01-04T03:03:10.603Z,98861.31
2023-01-04T03:06:09.525Z,98872.72
2023-01-04T03:08:43.477Z,98876.38
2023-01-04T03:11:28.423Z,98879.84
2023-01-04T03:14:02.397Z,98868.56
2023-01-04T03:16:51.783Z,98872.88
2023-01-04T03:19:47.837Z,98869.50
2023-01-04T03:22:41.581Z,98863.38
2023-01-04T03:25:28.319Z,98855.59
2023-01-04T03:28:16.759Z,98850.50
2023-01-04T03:31:10.468Z,98846.28
2023-01-04T03:33:56.244Z,98845.41
2023-01-04T03:36:41.463Z,98842.78
2023-01-04T03:39:37.333Z,98856.78
2023-01-04T03:42:30.288Z,98849.81
2023-01-04T03:45:29.798Z,98844.56
2023-01-04T03:48:25.420Z,98849.81
2023-01-04T03:51:01.622Z,98835.84
2023-01-04T03:53:32.037Z,98840.09
2023-01-04T03:56:03.263Z,98851.44
2023-01-04T03:58:31.637Z,98859.16
2023-01-04T04:01:04.004Z,98871.44
2023-01-04T04:03:50.524Z,98867.94
2023-01-04T04:06:36.345Z,98861.09
2023-01-04T04:09:05.477Z,98860.31
2023-01-04T04:11:35.185Z,98866.56
2023-01-04T04:14:03.521Z,98857.00
2023-01-04T04:16:31.824Z,98863.09
2023-01-04T04:19:06.446Z,98870.13
2023-01-04T04:21:36.750Z,98864.09
2023-01-04T04:24:06.245Z,98861.47
2023-01-04T04:26:36.014Z,98854.53
2023-01-04T04:29:04.312Z,98847.66
2023-01-04T04:31:32.644Z,98848.50
2023-01-04T04:34:01.062Z,98843.34
2023-01-04T04:36:29.362Z,98850.28
2023-01-04T04:38:57.617Z,98855.53
2023-01-04T04:41:39.852Z,98847.56
2023-01-04T04:44:12.291Z,98844.22
2023-01-04T04:46:41.114Z,98844.06
2023-01-04T04:49:10.060Z,98837.84
2023-01-04T04:51:39.156Z,98823.78
2023-01-04T04:54:08.751Z,98825.44
2023-01-04T04:56:37.980Z,98818.31
2023-01-04T04:59:06.874Z,98813.91
2023-01-04T05:01:36.940Z,98810.25
2023-01-04T05:04:06.010Z,98808.41
2023-01-04T05:06:34.398Z,98800.47
2023-01-04T05:09:02.692Z,98796.81
2023-01-04T05:11:48.578Z,98796.72
2023-01-04T05:14:16.861Z,98797.50
2023-01-04T05:16:46.515Z,98798.28
2023-01-04T05:19:14.925Z,98789.47
2023-01-04T05:21:43.158Z,98800.75
2023-01-04T05:24:13.575Z,98791.84
2023-01-04T05:26:42.082Z,98795.13
2023-01-04T05:29:30.344Z,98787.16
2023-01-04T05:31:58.984Z,98790.66
2023-01-04T05:34:27.238Z,98789.63
2023-01-04T05:36:55.454Z,98793.88
2023-01-04T05:39:23.693Z,98788.63
2023-01-04T05:42:09.469Z,98793.72
2023-01-04T05:44:37.702Z,98796.25
2023-01-04T05:47:13.057Z,98791.75
2023-01-04T05:49:43.238Z,98790.75
2023-01-04T05:52:12.211Z,98795.94
2023-01-04T05:54:40.659Z,98797.53
2023-01-04T05:57:09.193Z,98794.81
2023-01-04T05:59:41.962Z,98787.78
2023-01-04T06:02:17.553Z,98782.53
2023-01-04T06:04:45.885Z,98783.28
2023-01-04T06:07:14.917Z,98780.66
2023-01-04T06:09:43.412Z,98791.00
2023-01-04T06:12:11.949Z,98790.09
2023-01-04T06:14:40.304Z,98790.00
2023-01-04T06:17:09.055Z,98798.63
2023-01-04T06:19:39.009Z,98807.38
2023-01-04T06:22:11.150Z,98805.59
2023-01-04T06:24:39.365Z,98805.59
2023-01-04T06:27:07.676Z,98810.75
2023-01-04T06:29:35.932Z,98812.53
2023-01-04T06:32:04.279Z,98811.59
2023-01-04T06:34:32.534Z,98816.75
2023-01-04T06:37:02.152Z,98817.63
2023-01-04T06:39:30.523Z,98819.31
2023-01-04T06:42:05.720Z,98828.13
2023-01-04T06:44:34.856Z,98826.44
2023-01-04T06:47:03.112Z,98818.56
2023-01-04T06:49:31.467Z,98819.38
2023-01-04T06:52:01.161Z,98811.41
2023-01-04T06:54:29.847Z,98809.75
2023-01-04T06:56:58.139Z,98806.25
2023-01-04T06:59:26.429Z,98799.13
2023-01-04T07:01:54.891Z,98784.31
2023-01-04T07:04:23.310Z,98780.84
2023-01-04T07:06:51.573Z,98786.09
2023-01-04T07:09:21.183Z,98781.69
2023-01-04T07:11:49.414Z,98771.19
2023-01-04T07:14:17.896Z,98775.41
2023-01-04T07:16:46.226Z,98772.78
2023-01-04T07:19:14.491Z,98776.25
2023-01-04T07:21:43.157Z,98777.09
2023-01-04T07:24:11.766Z,98783.13
2023-01-04T07:26:41.389Z,98782.09
2023-01-04T07:29:17.961Z,98778.44
2023-01-04T07:31:48.500Z,98778.34
2023-01-04T07:34:18.095Z,98779.97
2023-01-04T07:36:47.599Z,98765.97
2023-01-04T07:39:17.290Z,98770.97
2023-01-04T07:41:48.038Z,98768.34
2023-01-04T07:44:18.122Z,98772.56
2023-01-04T07:46:46.660Z,98772.47
2023-01-04T07:49:18.470Z,98772.31
2023-01-04T07:51:47.601Z,98779.28
2023-01-04T07:54:15.922Z,98773.94
2023-01-04T07:56:46.007Z,98769.41
2023-01-04T07:59:16.285Z,98778.00
2023-01-04T08:01:45.457Z,98763.09
2023-01-04T08:04:15.273Z,98767.25
2023-01-04T08:06:46.604Z,98758.31
2023-01-04T08:09:15.557Z,98740.75
2023-01-04T08:11:43.785Z,98741.53
2023-01-04T08:14:13.702Z,98734.47
2023-01-04T08:16:44.285Z,98723.84
2023-01-04T08:19:16.628Z,98735.91
2023-01-04T08:21:45.313Z,98728.75
2023-01-04T08:24:15.323Z,98717.19
2023-01-04T08:26:43.972Z,98712.63
2023-01-04T08:29:13.877Z,98714.22
2023-01-04T08:31:42.305Z,98716.66
2023-01-04T08:34:11.539Z,98710.47
2023-01-04T08:36:49.425Z,98715.56
2023-01-04T08:39:18.140Z,98715.47
2023-01-04T08:41:59.446Z,98713.56
2023-01-04T08:44:30.793Z,98721.47
2023-01-04T08:46:59.304Z,98729.34
2023-01-04T08:49:27.960Z,98721.28
2023-01-04T08:51:56.281Z,98720.19
2023-01-04T08:54:24.520Z,98715.56
2023-01-04T08:56:52.744Z,98715.19
2023-01-04T08:59:21.052Z,98716.81
2023-01-04T09:01:50.791Z,98711.28
2023-01-04T09:04:19.199Z,98706.47
2023-01-04T09:06:47.538Z,98700.06
2023-01-04T09:09:16.930Z,98697.81
2023-01-04T09:11:45.142Z,98687.66
2023-01-04T09:14:13.972Z,98687.00
2023-01-04T09:16:42.614Z,98680.19
2023-01-04T09:19:15.211Z,98672.00
2023-01-04T09:21:48.255Z,98669.72
2023-01-04T09:24:16.563Z,98672.81
2023-01-04T09:26:47.342Z,98673.91
2023-01-04T09:29:15.651Z,98661.75
2023-01-04T09:31:44.064Z,98656.09
2023-01-04T09:34:16.607Z,98660.81
2023-01-04T09:36:45.704Z,98652.22
2023-01-04T09:39:21.836Z,98639.38
2023-01-04T09:41:58.928Z,98630.69
2023-01-04T09:47:38.787Z,98622.13
2023-01-04T09:50:18.431Z,98623.00
2023-01-04T09:53:04.215Z,98622.88
2023-01-04T09:55:41.588Z,98622.88
2023-01-04T09:58:23.490Z,98613.03
2023-01-04T10:00:58.898Z,98613.25
2023-01-04T10:03:32.803Z,98612.75
2023-01-04T10:06:04.246Z,98612.16
2023-01-04T10:08:32.554Z,98610.22
2023-01-04T10:11:17.855Z,98604.06
2023-01-04T10:14:27.677Z,98595.22
2023-01-04T10:17:28.232Z,98585.63
2023-01-04T10:24:11.993Z,98567.38
2023-01-04T10:26:47.179Z,98565.00
2023-01-04T10:29:38.501Z,98555.66
2023-01-04T10:32:18.147Z,98546.75
2023-01-04T10:34:48.562Z,98541.09
2023-01-04T10:37:21.973Z,98538.91
2023-01-04T10:39:56.282Z,98527.16
2023-01-04T10:42:34.991Z,98523.06
2023-01-04T10:45:17.465Z,98519.94
2023-01-04T10:48:02.354Z,98510.22
2023-01-04T10:50:49.865Z,98500.81
2023-01-04T10:53:21.687Z,98504.06
2023-01-04T10:56:25.936Z,98496.59
2023-01-04T10:58:51.391Z,98482.03
2023-01-04T11:01:26.377Z,98483.47
2023-01-04T11:04:00.554Z,98481.41
2023-01-04T11:06:32.406Z,98480.91
2023-01-04T11:09:04.141Z,98483.19
2023-01-04T11:11:40.876Z,98476.59
2023-01-04T11:14:10.291Z,98477.41
2023-01-04T11:16:41.279Z,98481.38
2023-01-04T11:19:11.284Z,98480.16
2023-01-04T11:21:45.918Z,98486.78
2023-01-04T11:24:31.442Z,98477.88
2023-01-04T11:27:07.577Z,98480.31
2023-01-04T11:29:43.136Z,98479.34
2023-01-04T11:32:20.869Z,98475.34
2023-01-04T11:34:53.257Z,98481.22
2023-01-04T11:37:33.425Z,98473.03
2023-01-04T11:40:29.322Z,98476.38
2023-01-04T11:46:06.659Z,98464.56
2023-01-04T11:48:42.179Z,98460.94
2023-01-04T11:51:36.627Z,98466.00
2023-01-04T11:54:07.652Z,98454.41
2023-01-04T11:56:37.292Z,98447.19
2023-01-04T11:59:22.582Z,98445.28
2023-01-04T12:02:50.600Z,98433.69
2023-01-04T12:05:28.256Z,98426.59
2023-01-04T12:07:57.722Z,98430.78
2023-01-04T12:10:29.280Z,98429.81
2023-01-04T12:13:01.660Z,98424.25
2023-01-04T12:15:38.847Z,98414.38
2023-01-04T12:18:17.713Z,98418.69
2023-01-04T12:20:46.978Z,98402.66
2023-01-04T12:23:15.683Z,98397.22
2023-01-04T12:25:49.036Z,98404.22
2023-01-04T12:28:35.563Z,98394.56
2023-01-04T12:31:37.059Z,98399.88
2023-01-04T12:34:44.875Z,98394.56
2023-01-04T12:37:49.455Z,98384.94
2023-01-04T12:40:55.477Z,98382.28
2023-01-04T12:43:28.530Z,98383.84
2023-01-04T12:46:52.974Z,98366.97
2023-01-04T12:49:49.909Z,98356.38
2023-01-04T12:53:02.407Z,98361.66
2023-01-04T12:56:03.438Z,98358.03
2023-01-04T12:59:25.527Z,98351.75
2023-01-04T13:02:18.655Z,98349.94
2023-01-04T13:04:47.688Z,98345.25
2023-01-04T13:07:22.894Z,98344.13
2023-01-04T13:09:56.070Z,98345.53
2023-01-04T13:12:55.291Z,98340.09
2023-01-04T13:15:37.594Z,98331.16
2023-01-04T13:18:34.610Z,98330.09
2023-01-04T13:21:10.640Z,98328.84
2023-01-04T13:23:39.779Z,98329.56
2023-01-04T13:26:39.006Z,98324.13
2023-01-04T13:29:14.623Z,98316.16
2023-01-04T13:31:55.907Z,98315.91
2023-01-04T13:34:28.367Z,98317.56
2023-01-04T13:37:06.005Z,98312.13
2023-01-04T13:39:34.657Z,98317.03
2023-01-04T13:42:03.736Z,98315.50
2023-01-04T13:47:52.101Z,98307.53
2023-01-04T13:50:40.052Z,98308.75
2023-01-04T13:53:20.091Z,98305.69
2023-01-04T13:55:52.741Z,98309.22
2023-01-04T13:58:24.040Z,98301.97
2023-01-04T14:00:59.964Z,98298.19
2023-01-04T14:03:33.583Z,98301.56
2023-01-04T14:06:19.817Z,98294.56
2023-01-04T14:08:55.194Z,98296.81
2023-01-04T14:11:45.537Z,98296.38
2023-01-04T14:14:24.341Z,98290.38
2023-01-04T14:17:08.655Z,98290.22
2023-01-04T14:19:45.625Z,98288.56
2023-01-04T14:22:42.747Z,98294.81
2023-01-04T14:25:44.837Z,98291.34
2023-01-04T14:28:37.516Z,98276.38
2023-01-04T14:31:37.490Z,98283.38
2023-01-04T14:34:15.657Z,98278.78
2023-01-04T14:36:44.470Z,98281.44
2023-01-04T14:39:34.409Z,98271.53
2023-01-04T14:42:02.693Z,98274.19
2023-01-04T14:44:33.606Z,98261.91
2023-01-04T14:47:06.213Z,98253.09
2023-01-04T14:49:36.064Z,98252.09
2023-01-04T14:52:11.586Z,98252.09
2023-01-04T14:54:40.228Z,98243.19
2023-01-04T14:57:09.864Z,98237.88
2023-01-04T14:59:38.119Z,98235.09
2023-01-04T15:02:06.533Z,98229.66
2023-01-04T15:04:36.189Z,98234.97
2023-01-04T15:07:04.431Z,98229.53
2023-01-04T15:09:33.089Z,98223.38
2023-01-04T15:12:01.369Z,98215.25
2023-01-04T15:14:29.604Z,98215.41
2023-01-04T15:16:57.857Z,98218.91
2023-01-04T15:19:26.219Z,98211.91
2023-01-04T15:21:55.832Z,98211.22
2023-01-04T15:24:24.274Z,98213.03
2023-01-04T15:26:52.562Z,98217.47
2023-01-04T15:29:20.815Z,98220.13
2023-01-04T15:31:49.113Z,98220.28
2023-01-04T15:34:18.104Z,98230.88
2023-01-04T15:36:46.366Z,98223.34
2023-01-04T15:39:17.361Z,98230.47
2023-01-04T15:42:02.791Z,98211.91
2023-01-04T15:44:31.100Z,98223.47
2023-01-04T15:47:00.084Z,98226.97
2023-01-04T15:49:30.687Z,98227.25
2023-01-04T15:51:58.935Z,98232.41
2023-01-04T15:54:29.247Z,98219.28
2023-01-04T15:56:57.812Z,98216.63
2023-01-04T15:59:26.751Z,98213.00
2023-01-04T16:01:55.083Z,98213.97
2023-01-04T16:04:23.477Z,98217.47
2023-01-04T16:06:51.809Z,98214.97
2023-01-04T16:09:20.156Z,98202.66
2023-01-04T16:12:07.784Z,98202.66
2023-01-04T16:14:36.055Z,98213.25
2023-01-04T16:17:04.423Z,98213.41
2023-01-04T16:19:34.207Z,98217.63
2023-01-04T16:22:02.758Z,98200.13
2023-01-04T16:25:09.279Z,98218.56
2023-01-04T16:27:20.826Z,98210.88
2023-01-04T16:29:51.457Z,98211.84
2023-01-04T16:32:20.181Z,98208.22
2023-01-04T16:34:51.460Z,98207.41
2023-01-04T16:37:20.256Z,98211.72
2023-01-04T16:40:07.703Z,98216.03
2023-01-04T16:42:38.260Z,98199.19
2023-01-04T16:45:08.637Z,98214.09
2023-01-04T16:47:42.123Z,98196.38
2023-01-04T16:50:12.150Z,98199.88
2023-01-04T16:52:41.279Z,98195.13
2023-01-04T16:55:11.621Z,98199.44
2023-01-04T16:57:41.330Z,98197.66
2023-01-04T17:00:11.472Z,98192.22
2023-01-04T17:02:39.783Z,98198.22
2023-01-04T17:05:09.194Z,98195.72
2023-01-04T17:07:37.491Z,98191.22
2023-01-04T17:10:06.880Z,98186.75
2023-01-04T17:12:50.470Z,98191.09
2023-01-04T17:18:12.377Z,98188.03
2023-01-04T17:20:41.480Z,98178.53
2023-01-04T17:23:10.056Z,98173.66
2023-01-04T17:25:38.381Z,98161.34
2023-01-04T17:28:06.710Z,98154.97
2023-01-04T17:30:39.247Z,98159.41
2023-01-04T17:33:07.556Z,98160.69
2023-01-04T17:35:37.412Z,98154.97
2023-01-04T17:38:06.178Z,98146.00
2023-01-04T17:40:35.999Z,98134.13
2023-01-04T17:43:05.005Z,98121.72
2023-01-04T17:45:35.380Z,98113.88
2023-01-04T17:48:03.984Z,98110.81
2023-01-04T17:50:32.318Z,98111.25
2023-01-04T17:53:00.763Z,98107.59
2023-01-04T17:55:29.117Z,98113.63
2023-01-04T17:57:57.414Z,98116.00
2023-01-04T18:00:25.683Z,98114.00
2023-01-04T18:02:55.281Z,98109.69
2023-01-04T18:05:23.501Z,98112.34
2023-01-04T18:07:51.861Z,98100.75
2023-01-04T18:10:26.996Z,98100.75
2023-01-04T18:13:08.451Z,98097.00
2023-01-04T18:15:43.865Z,98087.75
2023-01-04T18:18:25.045Z,98099.06
2023-01-04T18:20:54.123Z,98089.31
2023-01-04T18:23:25.647Z,98082.88
2023-01-04T18:25:54.153Z,98083.72
2023-01-04T18:28:23.766Z,98083.00
2023-01-04T18:30:52.052Z,98083.28
2023-01-04T18:33:20.396Z,98078.41
2023-01-04T18:35:50.052Z,98067.94
2023-01-04T18:38:18.327Z,98065.28
2023-01-04T18:40:46.844Z,98060.25
2023-01-04T18:43:15.131Z,98046.41
2023-01-04T18:45:43.455Z,98043.38
2023-01-04T18:48:11.779Z,98046.28
2023-01-04T18:50:40.142Z,98033.88
2023-01-04T18:53:10.069Z,98032.72
2023-01-04T18:55:39.476Z,98026.16
2023-01-04T18:58:07.862Z,98035.66
2023-01-04T19:00:36.161Z,98040.97
2023-01-04T19:03:04.681Z,98049.06
2023-01-04T19:05:33.042Z,98052.41
2023-01-04T19:08:01.319Z,98049.75
2023-01-04T19:10:31.099Z,98054.09
2023-01-04T19:12:59.399Z,98049.63
2023-01-04T19:15:27.735Z,98047.81
2023-01-04T19:17:57.195Z,98043.50
2023-01-04T19:20:25.572Z,98041.66
2023-01-04T19:22:53.845Z,98045.00
2023-01-04T19:25:27.970Z,98043.34
2023-01-04T19:27:57.860Z,98037.91
2023-01-04T19:30:26.184Z,98043.22
2023-01-04T19:32:54.674Z,98040.69
2023-01-04T19:35:22.986Z,98037.06
2023-01-04T19:37:51.431Z,98031.88
2023-01-04T19:40:19.874Z,98029.09
2023-01-04T19:42:48.173Z,98013.16
2023-01-04T19:45:17.959Z,98023.06
2023-01-04T19:47:46.454Z,98033.41
2023-01-04T19:50:14.923Z,98024.34
2023-01-04T19:52:43.189Z,98017.47
2023-01-04T19:55:12.029Z,98020.28
2023-01-04T19:57:40.370Z,98008.00
2023-01-04T20:00:11.286Z,98012.59
2023-01-04T20:02:41.032Z,98005.63
2023-01-04T20:05:10.132Z,98012.16
2023-01-04T20:07:38.448Z,98014.53
2023-01-04T20:10:13.832Z,98012.03
2023-01-04T20:12:42.715Z,98013.31
2023-01-04T20:15:13.390Z,98013.84
2023-01-04T20:17:43.051Z,98015.56
2023-01-04T20:20:11.732Z,98020.72
2023-01-04T20:22:40.087Z,98019.16
2023-01-04T20:25:09.515Z,98017.50
2023-01-04T20:27:38.062Z,98018.06
2023-01-04T20:30:07.950Z,98001.00
2023-01-04T20:32:37.373Z,98011.34
2023-01-04T20:35:08.122Z,98007.00
2023-01-04T20:37:36.422Z,98015.25
2023-01-04T20:40:05.309Z,98008.13
2023-01-04T20:42:51.206Z,98011.03
2023-01-04T20:45:19.542Z,98008.25
2023-01-04T20:47:47.812Z,98007.94
2023-01-04T20:50:17.827Z,98004.16
2023-01-04T20:52:46.130Z,98010.69
2023-01-04T20:55:17.549Z,98011.00
2023-01-04T20:57:46.136Z,98011.84
2023-01-04T21:00:16.325Z,98009.44
2023-01-04T21:02:44.816Z,98008.47
2023-01-04T21:05:13.333Z,98001.19
2023-01-04T21:07:42.943Z,98003.84
2023-01-04T21:10:11.214Z,97994.75
2023-01-04T21:12:39.499Z,97990.28
2023-01-04T21:15:08.663Z,97986.63
2023-01-04T21:17:37.057Z,97982.75
2023-01-04T21:20:06.296Z,97974.50
2023-01-04T21:22:35.575Z,97978.41
2023-01-04T21:25:05.919Z,97983.81
2023-01-04T21:27:34.230Z,97978.38
2023-01-04T21:30:02.510Z,97980.19
2023-01-04T21:32:30.870Z,97989.41
2023-01-04T21:34:59.197Z,97992.88
2023-01-04T21:37:27.686Z,97982.41
2023-01-04T21:39:56.061Z,97989.25
2023-01-04T21:42:25.712Z,97990.78
2023-01-04T21:44:53.946Z,97989.78
2023-01-04T21:47:22.190Z,97999.19
2023-01-04T21:49:50.887Z,97989.25
2023-01-04T21:52:19.254Z,97989.09
2023-01-04T21:54:47.499Z,97991.91
2023-01-04T21:57:15.792Z,97992.44
2023-01-04T21:59:45.420Z,97999.00
2023-01-04T22:02:16.734Z,97999.66
2023-01-04T22:04:45.773Z,98002.31
2023-01-04T22:07:14.291Z,97995.19
2023-01-04T22:09:42.583Z,97995.19
2023-01-04T22:12:10.919Z,97994.50
2023-01-04T22:14:39.314Z,97995.06
2023-01-04T22:17:08.997Z,97981.78
2023-01-04T22:19:37.214Z,97976.47
2023-01-04T22:22:05.493Z,97974.38
2023-01-04T22:24:37.818Z,97977.03
2023-01-04T22:27:06.638Z,97983.06
2023-01-04T22:29:34.897Z,97988.06
2023-01-04T22:32:03.170Z,97978.41
2023-01-04T22:34:32.907Z,97974.78
2023-01-04T22:37:01.138Z,97985.28
2023-01-04T22:39:29.416Z,97964.69
2023-01-04T22:41:57.713Z,97973.66
2023-01-04T22:44:26.181Z,97972.00
2023-01-04T22:46:54.442Z,97964.84
2023-01-04T22:49:22.789Z,97969.03
2023-01-04T22:51:54.140Z,97983.97
2023-01-04T22:54:22.536Z,97983.13
2023-01-04T22:56:51.127Z,97974.34
2023-01-04T22:59:19.351Z,97976.84
2023-01-04T23:01:47.612Z,97961.88
2023-01-04T23:04:18.325Z,97969.84
2023-01-04T23:06:47.154Z,97971.84
2023-01-04T23:09:19.177Z,97956.19
2023-01-04T23:11:47.495Z,97958.84
2023-01-04T23:14:18.203Z,97958.84
2023-01-04T23:16:46.858Z,97962.47
2023-01-04T23:19:15.987Z,97941.06
2023-01-04T23:21:44.261Z,97937.59
2023-01-04T23:24:16.535Z,97940.91
2023-01-04T23:26:47.232Z,97941.38
2023-01-04T23:29:15.537Z,97946.38
2023-01-04T23:31:43.836Z,97939.81
2023-01-04T23:34:13.888Z,97929.03
2023-01-04T23:36:43.255Z,97933.66
2023-01-04T23:39:16.996Z,97924.69
2023-01-04T23:41:45.642Z,97916.69
2023-01-04T23:44:17.863Z,97927.19
2023-01-04T23:46:47.136Z,97929.69
2023-01-04T23:49:15.450Z,97915.75
2023-01-04T23:51:43.760Z,97926.66
2023-01-04T23:54:12.161Z,97937.00
2023-01-04T23:56:42.175Z,97919.66
2023-01-04T23:59:11.165Z,97927.19
